Extreme weather reports worldwide

Lowest temperatures

Station
 
Location
 
Name
 
Wind
Knots
Gust
Knots
Vis
SM
Temp/Dew
C
Baro
inHg
METAR
 
NZSP AQ South Pole Station Airport 7 3.73 -48/ 28.56 NZSP 251750Z 03007KT 6000 IC BR FEW015 SCT100 M48/ A2856 RMK SKWY WNDS ESTMD CLN AIR 04003KT ALL WNDS GRID SDG/HDF
YCK CYVL Colville Lake, CA Tommy Kochon Airport 3 3 -45/-50 29.91 CYVL 251821Z AUTO 30003KT 290V350 3SM HZ CLR M45/M50 A2991 RMK SLP192
YHK CYHK Gjoa Haven, CA Gjoa Haven Airport 3 10 -43/-47 29.56 CYHK 251800Z 10003KT 040V100 10SM IC VCFG SKC M43/M47 A2956 RMK VIS 4 - WSW SLP022
YYH CYYH Taloyoak, CA Taloyoak Airport 10 2 -42/-46 29.58 CYYH 251824Z 01010KT 2SM IC BR FEW010 M42/M46 A2958 RMK FG1ST1 VIS NW-NE 4 SLP026
CYWE 5 9 -41/-45 29.85 CYWE 251800Z AUTO 27005KT 9SM CLR M41/M45 A2985 RMK ICG SLP181

Station
 
Location
 
Name
 
Wind
Knots
Gust
Knots
Vis
SM
Temp/Dew
C
Baro
inHg
METAR
 
YUB CYUB Tuktoyaktuk, CA Tuktoyaktuk Airport 5 3 -41/-45 30.07 CYUB 251800Z 12005KT 3SM BR SKC M41/M45 A3007 RMK SLP184
YKS UEEE Yakutsk, RU Yakutsk Airport 2 0.56 -40/-44 30.47 UEEE 251800Z 28001MPS 0900 0600SW R23L/1900N FG NSC M40/M44 Q1032 R23L/450150 NOSIG RMK QFE765
YUX CYUX Hall Beach, CA Hall Beach Airport 7 10 -40/-45 29.76 CYUX 251800Z 31007KT 10SM FEW009 FEW230 M40/M45 A2976 RMK ST1CI1 ST TR BR OVR BASIN SLP083
CXTV 1 -40/-44 CXTV 251800Z AUTO 31001KT M41/M45 RMK AO1 SOG 25 6005 SLP175 T14091446 50002
CXTN 7 -40/-44 CXTN 251800Z AUTO 23007KT M40/M44 RMK AO1 SOG 112 8011 SLP171 T14041443
YGT CYGT Igloolik, CA Igloolik Airport 7 15 -39/-43 29.73 CYGT 251800Z 29007KT 15SM SKC M39/M43 A2973 RMK SLP079
CZCP 15 -38/-42 29.96 CZCP 251800Z AUTO 26015KT ////SM //// NCD M38/M42 A2996
YRA CYRA Gamètì, CA Rae Lakes Airport 0 15 -38/-43 30.00 CYRA 251800Z 00000KT 15SM SKC M38/M43 A3000 RMK SLP202
YBK CYBK Baker Lake, CA Baker Lake Airport 37 0.13 -38/-42 29.49 CYBK 251800Z 32037KT 1/8SM -SN +BLSN BKN003 M38/M42 A2949 RMK BLSN2ST4 SLP990
CWKM 19 -38/-41 30.00 CWKM 251800Z AUTO 09019KT ////SM NCD M38/M41 A3000
CWIL 11 -38/-41 29.53 CWIL 251800Z AUTO 24011KT ////SM ////// M38/M41 A2953
CWIJ 29 -38/-43 CWIJ 251800Z AUTO 00029KT M39/M43 RMK AO1 SOG 38 0000 SLP119 T13851434
CYUS 6 -37/-43 29.53 CYUS 251800Z AUTO 13006KT ////SM //// FEW046 M37/M43 A2953
YRB CYRB Resolute Bay, CA Resolute Bay Airport 12 15 -37/-42 29.57 CYRB 251800Z 12012KT 15SM FEW030 M37/M42 A2957 RMK SC1 SLP027
YPC CYPC Paulatuk, CA Paulatuk (Nora Aliqatchialuk Ruben) Airport 15 15 -37/-42 30.08 CYPC 251800Z 21015KT 15SM DRSN FEW040 FEW100 M37/M42 A3008 RMK SC1AC1 SC TR AC TR SLP187
YSG CYLK Lutselk'e, CA Lutselk'e Airport 4 25 -37/-43 29.95 CYLK 251800Z VRB04KT 25SM SKC M37/M43 A2995 RMK SLP172
LAK CYKD Aklavik, CA Aklavik/Freddie Carmichael Airport 2 15 -37/-40 30.02 CYKD 251800Z 12002KT 15SM FEW060 FEW180 SCT240 M37/M40 A3002 RMK SC1AC1CI2 SLP169
CXRB 12 -37/-41 CXRB 251800Z AUTO 13012KT M38/M42 RMK AO1 SOG 10 3022 SLP029 T13771417
CWND 7 -37/-40 CWND 251800Z AUTO 08007KT M37/M41 RMK AO1 SLP151 T13731407 56004
CWKP 29 -37/-41 29.72 CWKP 251800Z AUTO 24029KT ////SM NCD M37/M41 A2972
PIZ PPIZ Point Lay, US Point Lay LRRS Airport 18 6 -37/ 30.14 PPIZ 251756Z AUTO 03018KT 6SM HZ BKN050 BKN060 M37/ A3014 RMK AO2 SLP209 60000 T1372 11361 21378 51019 FZRANO
YGH CYGH Fort Good Hope, CA Fort Good Hope Airport 3 25 -36/-40 29.98 CYGH 251800Z 03003KT 330V060 25SM FEW220 M36/M40 A2998 RMK CI1 SLP169
CXAT 12 -36/-40 CXAT 251800Z AUTO 29012KT M36/M40 RMK AO1 PK WND 29017/1700 SLP080 T13601403 52024
CWRX 14 -36/-39 CWRX 251800Z AUTO 30014KT ////SM //// NCD M36/M39 A////
CWJC Ennadai, CA Ennadai Lake Airport 25 -36/-40 CWJC 251800Z AUTO 34025KT M37/M41 RMK AO1 SOG 07 1018 PK WND 35028/1759 SLP093 T13661407
NUI PAQT Nuiqsut, US Nuiqsut Airport 10 9 -36/ 30.11 PAQT 251756Z 36010KT 9SM BKN110 M36/ A3011 RMK (SCC FSS)
DQH PALP Nuiqsut, US Alpine Airstrip 11 10 -36/ 30.11 PALP 251750Z 04011KT 10SM SCT120 M36/ A3011
UUK PAKU Kuparuk, US Ugnu-Kuparuk Airport 14 10 -36/ 30.07 PAKU 251745Z 03014KT 10SM R06/P6000FT FEW120 M36/ A3007
PAAD Deadhorse, US Point Thomson Airstrip 13 10 -35/-39 30.04 PAAD 251815Z AUTO 06013KT 10SM CLR M36/M39 A3004 RMK AO2 T13571390
YHI CYHI Ulukhaktok, CA Ulukhaktok Holman Airport 26 31 0 -35/-39 29.76 CYHI 251813Z CCB 30026G31KT 0SM +BLSN BKN013 OVC099 M35/M39 A2976 RMK BLSN6SC1AC1 VIS 0-1/8 SLP085
ZFM CZFM Fort Mcpherson, CA Fort Mcpherson Airport 5 35 -35/-39 30.00 CZFM 251800Z 14005KT 35SM BKN190 M35/M39 A3000 RMK AC5 SLP167
YEV CYEV Inuvik, CA Inuvik Mike Zubko Airport 9 15 -35/-39 30.00 CYEV 251800Z 07009KT 15SM FEW230 M35/M39 A3000 RMK CI1 SLP175
YCO CYCO Kugluktuk, CA Kugluktuk Airport 18 10 -35/-41 29.94 CYCO 251800Z 24018KT 10SM DRSN FEW063 SCT071 BKN075 M35/M41 A2994 RMK SC1AS3AS2 SLP146
CXSE 0 -35/-39 CXSE 251800Z AUTO 00000KT M36/M40 RMK AO1 SOG 54 3014 SLP967 T13581395
CWPX 29 -35/-40 29.45 CWPX 251800Z AUTO 32029KT ////SM //// BKN003 M35/M40 A2945
CWMT 1 -35/-41 CWMT 251800Z AUTO 36001KT M36/M42 RMK AO1 SOG 34 0005 SLP183 T13591417
BTI PABA Barter Island Lrrs, US Barter Island LRRS Airport 11 10 -35/ 30.05 PABA 251752Z AUTO 06011KT 10SM CLR M36/ A3005 RMK AO2 SLP184 T1356 11350 21356 53010 FZRANO
PYJ UERP Yakutia, RU Polyarny Airport 2 6.21 -34/-37 30.18 UERP 251800Z VRB01MPS CAVOK M34/M37 Q1022 R17/850537 NOSIG RMK QFE722
CZEV 7 -34/-38 CZEV 251800Z AUTO 08007KT M35/M39 RMK AO1 SOG 31 6007 SLP177 T13461389
YZF CYZF Yellowknife, CA Yellowknife Airport 9 15 -34/-41 29.95 CYZF 251800Z 03009KT 15SM FEW250 M34/M41 A2995 RMK CI1 CI TR SLP177
YWJ CYWJ Déline, CA Déline Airport 10 30 -34/-40 29.95 CYWJ 251800Z 09010KT 30SM FEW049 SCT080 M34/M40 A2995 RMK SC2AC2 SLP182
CXDE 8 -34/-40 CXDE 251800Z AUTO 10008KT M34/M40 RMK AO1 SOG 26 8013 SLP188 T13441402
BRW PABR Utqiaġvik, US Wiley Post Will Rogers Memorial Airport 9 5 -33/-37 30.22 PABR 251814Z 03009KT 5SM HZ FEW002 M34/M37 A3022 RMK AO2 T13391372
NJC USNN Nizhnevartovsk, RU Nizhnevartovsk Airport 4 6.21 -33/-36 30.06 USNN 251800Z 32002MPS CAVOK M33/M36 Q1018 R03/32//65 NOSIG RMK QFE760
MJZ UERR Mirny, RU Mirny Airport 6 6.21 -33/-37 30.24 UERR 251800Z 07003MPS CAVOK M33/M37 Q1024 R25/490337 NOSIG RMK QFE737/0983